Bei Facebook empfehlenBei Twitter postenGoogle plusPinterest

Das Wetter im Erzgebirge am 08.10.2016

Wetter und Klima am 08.10.2016 Holzhau im Erzgebirge (630m ü.NN)
Letzte gemessene Temperatur und Uhrzeit der Messung23:45:00 Uhr4.90 °C
Temperatur (Maximum / Höchstwert) und Uhrzeit der Messung16:15:00 Uhr6.50 °C
Temperatur (Minimum / Tiefstwert) und Uhrzeit der Messung04:45:003.50 °C
Errechneter Absolutwert der Temperaturschwankungen zwischen Tmin und Tmax des Tages3.00 K
Errechnete Tagesmitteltemperatur4.85417 °C
Gesamt - Niederschlag des Tages (in flüssiger Form)6.22 Liter / m²
Luftdruck (Maximum / Höchstwert) und Zeitpunkt der Messung23:15:00 Uhr1017.00 hPa
Luftdruck (Minimum / Tiefstwert) und Zeitpunkt der Messung05:45:00 Uhr1013.60 hPa
Errechneter Absolutwert der Luftdruckschwankungen des Tages3.40 hPa
Höchste gemessene Windgeschwindigkeit und Uhrzeit der Messung23:45:00 Uhr0.00 km/h
Errechnete Windhäufigkeit in Relation zu den Messwerten des Tages0.00000 %
Niedrigste Windkühle (Windchill) und Zeitpunkt der Messung04:45:00 Uhr3.50 °C
Taupunkt (Maximum / Höchstwert) und Uhrzeit der Messung16:15:00 Uhr5.80 °C
Taupunkt (Minimum / Tiefstwert) und Uhrzeit der Messung04:45:002.80 °C
Anzahl der automatisch eingelesenen Messwerte 96

Detaillierte Wetter- und Klima- Messwerte für den 08.10.2016 in Holzhau im Erzgebirge (630m ü.NN)
ZeitTemperaturLuftdruckRel. LuftfeuchteWindWindrichtungWindchillTaupunktNiederschlag l/m²
23:45:004.90 °C1016.80 hPa96.00 %4.30 °C6.22
23:30:004.90 °C1016.70 hPa96.00 %4.30 °C6.22
23:15:004.80 °C1017.00 hPa96.00 %4.20 °C6.22
23:00:004.80 °C1016.90 hPa96.00 %4.20 °C6.22
22:45:004.70 °C1016.80 hPa96.00 %4.10 °C6.22
22:30:004.70 °C1016.70 hPa96.00 %4.10 °C6.22
22:15:004.70 °C1016.70 hPa96.00 %4.10 °C6.22
22:00:004.70 °C1016.60 hPa96.00 %4.10 °C6.22
21:45:004.70 °C1016.70 hPa96.00 %4.10 °C6.22
21:30:004.80 °C1016.70 hPa96.00 %4.20 °C6.22
21:15:004.80 °C1016.70 hPa96.00 %4.20 °C5.70
21:00:004.90 °C1016.70 hPa96.00 %4.30 °C5.18
20:45:004.80 °C1016.60 hPa96.00 %4.20 °C5.18
20:30:004.70 °C1016.60 hPa96.00 %4.10 °C5.18
20:15:004.60 °C1016.60 hPa96.00 %4.00 °C5.18
20:00:004.40 °C1016.40 hPa96.00 %3.80 °C5.18
19:45:004.40 °C1016.40 hPa95.00 %3.70 °C5.18
19:30:004.50 °C1016.40 hPa95.00 %3.80 °C5.18
19:15:004.50 °C1016.50 hPa95.00 %3.80 °C5.18
19:00:004.60 °C1016.30 hPa95.00 %3.90 °C4.66
18:45:004.80 °C1016.20 hPa95.00 %4.10 °C4.14
18:30:004.90 °C1016.00 hPa95.00 %4.20 °C4.14
18:15:005.30 °C1016.00 hPa95.00 %4.60 °C4.14
18:00:005.60 °C1015.90 hPa95.00 %4.90 °C3.63
17:45:005.80 °C1015.90 hPa95.00 %5.10 °C3.11
17:30:005.90 °C1015.70 hPa95.00 %5.20 °C3.11
17:15:006.10 °C1015.60 hPa95.00 %5.40 °C3.11
17:00:006.20 °C1015.50 hPa95.00 %5.50 °C3.11
16:45:006.30 °C1015.60 hPa95.00 %5.60 °C3.11
16:30:006.40 °C1015.40 hPa95.00 %5.70 °C3.11
16:15:006.50 °C1015.60 hPa95.00 %5.80 °C3.11
16:00:006.40 °C1015.30 hPa95.00 %5.70 °C3.11
15:45:006.30 °C1015.40 hPa95.00 %5.60 °C3.11
15:30:006.40 °C1015.60 hPa95.00 %5.70 °C3.11
15:15:006.30 °C1015.60 hPa95.00 %5.60 °C3.11
15:00:006.10 °C1015.60 hPa95.00 %5.40 °C3.11
14:45:006.20 °C1015.70 hPa95.00 %5.50 °C3.11
14:30:006.40 °C1015.70 hPa95.00 %5.70 °C2.59
14:15:006.20 °C1015.60 hPa95.00 %5.50 °C2.59
14:00:005.90 °C1015.80 hPa95.00 %5.20 °C2.07
13:45:005.80 °C1015.60 hPa95.00 %5.10 °C2.07
13:30:005.80 °C1015.50 hPa95.00 %5.10 °C2.07
13:15:005.90 °C1015.60 hPa95.00 %5.20 °C2.07
13:00:005.90 °C1015.50 hPa95.00 %5.20 °C2.07
12:45:005.80 °C1015.20 hPa96.00 %5.20 °C2.07
12:30:005.50 °C1015.40 hPa96.00 %4.90 °C2.07
12:15:005.20 °C1015.30 hPa95.00 %4.50 °C1.55
12:00:005.10 °C1015.20 hPa95.00 %4.40 °C1.55
11:45:005.30 °C1015.20 hPa95.00 %4.60 °C1.55
11:30:005.40 °C1015.10 hPa96.00 %4.80 °C1.55
11:15:005.50 °C1015.00 hPa96.00 %4.90 °C1.55
11:00:005.30 °C1014.80 hPa96.00 %4.70 °C1.55
10:45:004.80 °C1014.80 hPa96.00 %4.20 °C1.55
10:30:004.50 °C1014.80 hPa96.00 %3.90 °C1.55
10:15:004.50 °C1014.60 hPa96.00 %3.90 °C1.55
10:00:004.30 °C1014.50 hPa96.00 %3.70 °C1.55
09:45:004.20 °C1014.50 hPa95.00 %3.50 °C1.55
09:30:004.10 °C1014.40 hPa95.00 %3.40 °C1.55
09:15:004.20 °C1014.10 hPa95.00 %3.50 °C1.55
09:00:004.10 °C1014.10 hPa95.00 %3.40 °C1.55
08:45:004.10 °C1013.90 hPa95.00 %3.40 °C1.55
08:30:003.90 °C1013.90 hPa95.00 %3.20 °C1.55
08:15:003.90 °C1014.00 hPa95.00 %3.20 °C1.55
08:00:003.80 °C1014.00 hPa95.00 %3.10 °C1.55
07:45:003.80 °C1014.00 hPa95.00 %3.10 °C1.04
07:30:003.80 °C1014.00 hPa95.00 %3.10 °C1.04
07:15:003.70 °C1013.90 hPa95.00 %3.00 °C1.04
07:00:003.60 °C1013.90 hPa95.00 %2.90 °C1.04
06:45:003.60 °C1013.90 hPa95.00 %2.90 °C1.04
06:30:003.80 °C1013.80 hPa95.00 %3.10 °C1.04
06:15:003.80 °C1013.80 hPa95.00 %3.10 °C1.04
06:00:003.80 °C1013.70 hPa95.00 %3.10 °C1.04
05:45:003.80 °C1013.60 hPa95.00 %3.10 °C1.04
05:30:003.60 °C1013.80 hPa95.00 %2.90 °C1.04
05:15:003.60 °C1013.80 hPa95.00 %2.90 °C1.04
05:00:003.60 °C1013.70 hPa95.00 %2.90 °C1.04
04:45:003.50 °C1013.80 hPa95.00 %2.80 °C1.04
04:30:003.60 °C1013.80 hPa95.00 %2.90 °C1.04
04:15:003.60 °C1014.10 hPa95.00 %2.90 °C1.04
04:00:003.60 °C1014.10 hPa95.00 %2.90 °C1.04
03:45:003.80 °C1014.10 hPa95.00 %3.10 °C1.04
03:30:003.90 °C1014.10 hPa95.00 %3.20 °C1.04
03:15:004.10 °C1014.10 hPa95.00 %3.40 °C1.04
03:00:004.20 °C1014.20 hPa95.00 %3.50 °C1.04
02:45:004.30 °C1014.20 hPa95.00 %3.60 °C1.04
02:30:004.80 °C1014.20 hPa94.00 %3.90 °C1.04
02:15:005.10 °C1014.20 hPa94.00 %4.20 °C0.52
02:00:005.10 °C1014.10 hPa94.00 %4.20 °C0.52
01:45:005.10 °C1014.30 hPa94.00 %4.20 °C0.52
01:30:005.10 °C1014.20 hPa94.00 %4.20 °C0.52
01:15:005.10 °C1014.20 hPa94.00 %4.20 °C0.52
01:00:005.10 °C1014.10 hPa94.00 %4.20 °C0.52
00:45:005.10 °C1014.20 hPa94.00 %4.20 °C0.52
00:30:005.10 °C1014.30 hPa94.00 %4.20 °C0.52
00:15:005.20 °C1014.30 hPa94.00 %4.30 °C 
00:00:005.30 °C1014.40 hPa94.00 %4.40 °C 

Permanenter Link zu dieser Seite: Wetter im Erzgebirge am 08.10.2016
Performance-Info: Die Erstellung der Seite / Statistik(en) / Tabelle(n) erforderte 5 Datenbankserver-Abfrage(n) und dauerte 102 Millisekunden. (Dieser Messwert ist von der Gesamt-Auslastung des Servers abhängig.)
Erzgebirge - Wetter | Erzgebirge - Wetter (Mobilgeräte) | Komplette Klimadatenbank